createdAt,value
2017-05-21T00:10:59.673Z,928.79
2017-05-21T00:12:55.093Z,928.86
2017-05-21T00:14:42.527Z,928.84
2017-05-21T00:14:55.970Z,928.83
2017-05-21T00:17:44.303Z,928.87
2017-05-21T00:19:00.691Z,928.91
2017-05-21T00:19:21.556Z,928.91
2017-05-21T00:19:35.205Z,928.91
2017-05-21T00:20:56.995Z,928.93
2017-05-21T00:21:17.647Z,928.92
2017-05-21T00:22:01.717Z,928.91
2017-05-21T00:23:29.771Z,928.84
2017-05-21T00:23:43.519Z,928.88
2017-05-21T00:25:28.262Z,928.82
2017-05-21T00:25:49.478Z,928.82
2017-05-21T00:27:58.459Z,928.84
2017-05-21T00:28:42.980Z,928.8
2017-05-21T00:29:29.963Z,928.81
2017-05-21T00:30:20.487Z,928.85
2017-05-21T00:30:33.369Z,928.84
2017-05-21T00:31:19.387Z,928.83
2017-05-21T00:31:33.749Z,928.82
2017-05-21T00:32:22.502Z,928.85
2017-05-21T00:32:35.551Z,928.89
2017-05-21T00:33:20.100Z,928.92
2017-05-21T00:33:33.001Z,928.91
2017-05-21T00:34:25.296Z,928.91
2017-05-21T00:34:37.668Z,928.93
2017-05-21T00:35:21.976Z,928.93
2017-05-21T00:38:28.112Z,928.94
2017-05-21T00:39:05.874Z,928.95
2017-05-21T00:42:27.101Z,928.92
2017-05-21T00:42:40.493Z,928.88
2017-05-21T00:43:37.331Z,928.88
2017-05-21T00:44:53.255Z,928.91
2017-05-21T00:46:21.291Z,928.89
2017-05-21T00:47:05.661Z,928.91
2017-05-21T00:48:03.522Z,928.89
2017-05-21T00:48:30.204Z,928.9
2017-05-21T00:50:10.266Z,928.89
2017-05-21T00:50:54.852Z,928.91
2017-05-21T00:52:45.744Z,928.78
2017-05-21T00:53:34.898Z,928.76
2017-05-21T00:56:01.685Z,928.74
2017-05-21T00:56:49.278Z,928.73
2017-05-21T00:58:18.335Z,928.7
2017-05-21T01:00:08.285Z,928.71
2017-05-21T01:00:55.445Z,928.7
2017-05-21T01:02:23.938Z,928.66
2017-05-21T01:02:37.399Z,928.7
2017-05-21T01:03:57.822Z,928.76
2017-05-21T01:05:24.047Z,928.75
2017-05-21T01:05:41.328Z,928.78
2017-05-21T01:06:51.593Z,928.77
2017-05-21T01:07:35.448Z,928.79
2017-05-21T01:08:08.357Z,928.8
2017-05-21T01:09:24.039Z,928.79
2017-05-21T01:10:16.825Z,928.75
2017-05-21T01:11:57.866Z,928.72
2017-05-21T01:13:14.022Z,928.75
2017-05-21T01:14:04.411Z,928.78
2017-05-21T01:16:04.201Z,928.85
2017-05-21T01:17:32.749Z,928.9
2017-05-21T01:18:48.480Z,928.91
2017-05-21T01:21:28.653Z,928.9
2017-05-21T01:22:58.928Z,928.85
2017-05-21T01:23:24.656Z,928.8
2017-05-21T01:24:11.707Z,928.77
2017-05-21T01:25:16.094Z,928.72
2017-05-21T01:26:44.058Z,928.72
2017-05-21T01:27:31.491Z,928.69
2017-05-21T01:28:47.291Z,928.67
2017-05-21T01:33:32.507Z,928.61
2017-05-21T01:33:45.917Z,928.62
2017-05-21T01:33:59.346Z,928.6
2017-05-21T01:35:15.017Z,928.58
2017-05-21T01:36:06.576Z,928.58
2017-05-21T01:36:53.205Z,928.55
2017-05-21T01:39:25.296Z,928.46
2017-05-21T01:39:46.132Z,928.45
2017-05-21T01:41:49.701Z,928.43
2017-05-21T01:43:25.639Z,928.48
2017-05-21T01:44:17.372Z,928.49
2017-05-21T01:45:15.648Z,928.47
2017-05-21T01:46:31.356Z,928.54
2017-05-21T01:47:17.191Z,928.54
2017-05-21T01:48:01.799Z,928.6
2017-05-21T01:52:23.276Z,928.63
2017-05-21T01:54:48.705Z,928.62
2017-05-21T01:55:50.523Z,928.58
2017-05-21T01:56:21.515Z,928.54
2017-05-21T01:57:34.233Z,928.53
2017-05-21T02:00:49.034Z,928.49
2017-05-21T02:03:18.281Z,928.59
2017-05-21T02:04:08.720Z,928.59
2017-05-21T02:04:56.496Z,928.63
2017-05-21T02:05:47.389Z,928.61
2017-05-21T02:07:52.863Z,928.66
2017-05-21T02:09:10.789Z,928.68
2017-05-21T02:09:28.936Z,928.66
2017-05-21T02:10:44.074Z,928.68
2017-05-21T02:11:30.312Z,928.65
2017-05-21T02:12:42.790Z,928.71
2017-05-21T02:13:31.869Z,928.64
2017-05-21T02:14:47.002Z,928.68
2017-05-21T02:15:32.348Z,928.66
2017-05-21T02:16:16.535Z,928.65
2017-05-21T02:16:43.141Z,928.67
2017-05-21T02:18:42.359Z,928.71
2017-05-21T02:19:33.271Z,928.7
2017-05-21T02:20:30.313Z,928.75
2017-05-21T02:21:59.914Z,928.75
2017-05-21T02:22:46.710Z,928.75
2017-05-21T02:24:15.849Z,928.71
2017-05-21T02:25:11.864Z,928.74
2017-05-21T02:26:59.457Z,928.79
2017-05-21T02:27:18.029Z,928.76
2017-05-21T02:28:02.521Z,928.81
2017-05-21T02:29:17.733Z,928.8
2017-05-21T02:29:31.216Z,928.85
2017-05-21T02:30:31.203Z,928.83
2017-05-21T02:31:20.534Z,928.83
2017-05-21T02:35:36.078Z,928.73
2017-05-21T02:36:51.737Z,928.7
2017-05-21T02:38:08.833Z,928.67
2017-05-21T02:38:33.381Z,928.64
2017-05-21T02:39:48.096Z,928.65
2017-05-21T02:40:47.162Z,928.64
2017-05-21T02:41:49.583Z,928.66
2017-05-21T02:57:03.671Z,928.49
2017-05-21T02:58:19.403Z,928.48
2017-05-21T02:59:29.729Z,928.41
2017-05-21T03:00:55.347Z,928.4
2017-05-21T03:01:15.107Z,928.37
2017-05-21T03:02:52.267Z,928.39
2017-05-21T03:03:24.446Z,928.34
2017-05-21T03:04:09.727Z,928.36
2017-05-21T03:04:54.381Z,928.38
2017-05-21T03:07:00.634Z,928.31
2017-05-21T03:07:17.722Z,928.32
2017-05-21T03:09:17.043Z,928.32
2017-05-21T03:09:33.855Z,928.32
2017-05-21T03:12:06.169Z,928.43
2017-05-21T03:13:05.975Z,928.45
2017-05-21T03:13:18.195Z,928.46
2017-05-21T03:13:31.794Z,928.44
2017-05-21T03:15:13.687Z,928.45
2017-05-21T03:16:00.775Z,928.46
2017-05-21T03:16:17.565Z,928.47
2017-05-21T03:16:46.731Z,928.5
2017-05-21T03:17:32.076Z,928.46
2017-05-21T03:18:47.256Z,928.47
2017-05-21T03:20:33.594Z,928.42
2017-05-21T03:22:19.877Z,928.46
2017-05-21T03:23:10.217Z,928.45
2017-05-21T03:39:38.427Z,928.65
2017-05-21T03:40:04.984Z,928.66
2017-05-21T03:40:50.482Z,928.67
2017-05-21T03:41:37.119Z,928.67
2017-05-21T03:42:21.787Z,928.67
2017-05-21T03:43:06.612Z,928.69
2017-05-21T03:45:51.199Z,928.68
2017-05-21T03:46:10.360Z,928.66
2017-05-21T03:46:58.218Z,928.65
2017-05-21T03:48:13.401Z,928.64
2017-05-21T03:51:13.342Z,928.64
2017-05-21T03:51:26.474Z,928.65
2017-05-21T03:51:49.134Z,928.64
2017-05-21T03:52:39.474Z,928.61
2017-05-21T03:53:24.351Z,928.64
2017-05-21T03:53:58.542Z,928.61
2017-05-21T03:54:11.439Z,928.61
2017-05-21T03:54:34.627Z,928.63
2017-05-21T03:54:53.315Z,928.61
2017-05-21T03:56:22.538Z,928.66
2017-05-21T03:57:06.797Z,928.62
2017-05-21T03:57:51.399Z,928.62
2017-05-21T03:58:48.931Z,928.66
2017-05-21T03:59:02.275Z,928.66
2017-05-21T03:59:27.944Z,928.65
2017-05-21T03:59:39.840Z,928.69
2017-05-21T04:00:03.391Z,928.67
2017-05-21T04:01:06.397Z,928.67
2017-05-21T04:01:19.572Z,928.68
2017-05-21T04:01:33.021Z,928.68
2017-05-21T04:02:19.840Z,928.67
2017-05-21T04:03:04.356Z,928.66
2017-05-21T04:03:54.753Z,928.63
2017-05-21T04:04:08.177Z,928.67
2017-05-21T04:04:52.723Z,928.67
2017-05-21T04:05:06.116Z,928.67
2017-05-21T04:05:18.998Z,928.65
2017-05-21T04:05:31.870Z,928.64
2017-05-21T04:06:15.924Z,928.63
2017-05-21T04:06:31.093Z,928.63
2017-05-21T04:06:43.976Z,928.64
2017-05-21T04:07:29.984Z,928.62
2017-05-21T04:08:14.018Z,928.63
2017-05-21T04:08:27.402Z,928.66
2017-05-21T04:09:11.433Z,928.64
2017-05-21T04:10:15.018Z,928.67
2017-05-21T04:10:27.436Z,928.64
2017-05-21T04:10:40.682Z,928.62
2017-05-21T04:10:53.580Z,928.65
2017-05-21T04:11:06.904Z,928.66
2017-05-21T04:11:22.919Z,928.63
2017-05-21T04:11:36.410Z,928.64
2017-05-21T04:11:49.317Z,928.68
2017-05-21T04:12:34.793Z,928.65
2017-05-21T04:12:47.147Z,928.64
2017-05-21T04:13:05.595Z,928.64
2017-05-21T04:13:40.607Z,928.65
2017-05-21T04:13:55.431Z,928.66
2017-05-21T04:14:08.870Z,928.67
2017-05-21T04:14:21.187Z,928.63
2017-05-21T04:15:05.994Z,928.64
2017-05-21T04:16:03.994Z,928.62
2017-05-21T04:16:59.585Z,928.65
2017-05-21T04:17:44.918Z,928.63
2017-05-21T04:18:05.781Z,928.61
2017-05-21T04:18:18.138Z,928.62
2017-05-21T04:18:41.002Z,928.61
2017-05-21T04:18:59.466Z,928.61
2017-05-21T04:20:28.760Z,928.59
2017-05-21T04:20:42.183Z,928.6
2017-05-21T04:20:55.045Z,928.6
2017-05-21T04:21:08.554Z,928.57
2017-05-21T04:22:25.467Z,928.57
2017-05-21T04:22:38.372Z,928.59
2017-05-21T04:22:52.772Z,928.57
2017-05-21T04:23:44.369Z,928.53
2017-05-21T04:24:15.610Z,928.55
2017-05-21T04:25:00.978Z,928.56
2017-05-21T04:25:58.638Z,928.56
2017-05-21T04:26:13.307Z,928.56
2017-05-21T04:26:26.939Z,928.6
2017-05-21T04:26:42.049Z,928.54
2017-05-21T04:27:01.125Z,928.52
2017-05-21T04:27:14.034Z,928.54
2017-05-21T04:27:26.390Z,928.54
2017-05-21T04:27:41.396Z,928.51
2017-05-21T04:28:06.729Z,928.51
2017-05-21T04:28:53.060Z,928.5
2017-05-21T04:29:06.519Z,928.52
2017-05-21T04:29:22.071Z,928.43
2017-05-21T04:30:09.912Z,928.43
2017-05-21T04:31:18.956Z,928.39
2017-05-21T04:32:07.209Z,928.38
2017-05-21T04:32:57.037Z,928.39
2017-05-21T04:33:47.546Z,928.36
2017-05-21T04:34:00.416Z,928.35
2017-05-21T04:34:15.076Z,928.36
2017-05-21T04:35:25.994Z,928.35
2017-05-21T04:35:38.312Z,928.34
2017-05-21T04:36:03.672Z,928.32
2017-05-21T04:36:16.547Z,928.34
2017-05-21T04:36:28.849Z,928.32
2017-05-21T04:36:45.295Z,928.34
2017-05-21T04:37:01.723Z,928.36
2017-05-21T04:37:22.903Z,928.33
2017-05-21T04:37:37.822Z,928.32
2017-05-21T04:37:52.143Z,928.32
2017-05-21T04:38:05.584Z,928.33
2017-05-21T04:38:18.588Z,928.37
2017-05-21T04:38:57.151Z,928.32
2017-05-21T04:39:41.690Z,928.31
2017-05-21T04:39:56.678Z,928.33
2017-05-21T04:40:15.450Z,928.35
2017-05-21T04:40:28.586Z,928.31
2017-05-21T04:40:41.515Z,928.32
2017-05-21T04:40:58.249Z,928.35
2017-05-21T04:41:23.703Z,928.35
2017-05-21T04:41:36.748Z,928.32
2017-05-21T04:41:50.211Z,928.34
2017-05-21T04:42:09.877Z,928.33
2017-05-21T04:42:25.851Z,928.36
2017-05-21T04:42:40.783Z,928.36
2017-05-21T04:42:54.201Z,928.33
2017-05-21T04:43:09.616Z,928.38
2017-05-21T04:43:21.988Z,928.39
2017-05-21T04:43:45.181Z,928.38
2017-05-21T04:43:58.650Z,928.4
2017-05-21T04:44:10.992Z,928.4
2017-05-21T04:44:25.274Z,928.44
2017-05-21T04:44:41.201Z,928.42
2017-05-21T04:44:54.801Z,928.4
2017-05-21T04:45:08.448Z,928.39
2017-05-21T04:45:22.505Z,928.38
2017-05-21T04:45:40.627Z,928.4
2017-05-21T04:45:57.061Z,928.38
2017-05-21T04:46:10.478Z,928.39
2017-05-21T04:46:23.925Z,928.39
2017-05-21T04:46:37.405Z,928.42
2017-05-21T04:46:52.035Z,928.42
2017-05-21T04:47:05.467Z,928.4
2017-05-21T04:47:19.094Z,928.37
2017-05-21T04:48:09.289Z,928.34
2017-05-21T04:48:23.530Z,928.37
2017-05-21T04:48:39.484Z,928.37
2017-05-21T04:48:52.297Z,928.38
2017-05-21T04:49:05.230Z,928.35
2017-05-21T04:49:18.118Z,928.35
2017-05-21T04:49:29.975Z,928.34
2017-05-21T04:49:50.058Z,928.32
2017-05-21T04:50:04.891Z,928.36
2017-05-21T04:50:17.816Z,928.33
2017-05-21T04:50:40.646Z,928.33
2017-05-21T04:50:54.183Z,928.36
2017-05-21T04:51:13.036Z,928.32
2017-05-21T04:51:30.346Z,928.37
2017-05-21T04:51:42.164Z,928.35
2017-05-21T04:51:56.357Z,928.35
2017-05-21T04:52:09.728Z,928.34
2017-05-21T04:52:21.617Z,928.31
2017-05-21T04:52:41.322Z,928.35
2017-05-21T04:53:00.402Z,928.33
2017-05-21T04:53:19.903Z,928.33
2017-05-21T04:53:37.762Z,928.33
2017-05-21T04:53:53.496Z,928.33
2017-05-21T04:54:12.005Z,928.34
2017-05-21T04:54:24.358Z,928.35
2017-05-21T04:54:36.746Z,928.33
2017-05-21T04:54:52.315Z,928.34
2017-05-21T04:55:06.130Z,928.36
2017-05-21T04:55:19.018Z,928.34
2017-05-21T04:55:32.661Z,928.3
2017-05-21T04:55:45.017Z,928.34
2017-05-21T04:56:01.142Z,928.32
2017-05-21T04:56:14.216Z,928.31
2017-05-21T04:56:26.073Z,928.33
2017-05-21T04:56:39.090Z,928.31
2017-05-21T04:56:53.312Z,928.33
2017-05-21T04:57:07.957Z,928.34
2017-05-21T04:57:20.826Z,928.33
2017-05-21T04:57:34.162Z,928.36
2017-05-21T04:57:51.921Z,928.32
2017-05-21T04:58:05.316Z,928.29
2017-05-21T04:58:18.770Z,928.34
2017-05-21T04:58:31.177Z,928.3
2017-05-21T04:58:44.747Z,928.31
2017-05-21T04:58:57.652Z,928.34
2017-05-21T04:59:10.544Z,928.35
2017-05-21T04:59:22.918Z,928.32
2017-05-21T04:59:36.415Z,928.32
2017-05-21T04:59:48.819Z,928.31
2017-05-21T05:00:02.232Z,928.29
2017-05-21T05:00:15.727Z,928.29
2017-05-21T05:00:29.368Z,928.28
2017-05-21T05:00:42.917Z,928.27
2017-05-21T05:00:56.815Z,928.31
2017-05-21T05:01:13.166Z,928.26
2017-05-21T05:01:26.623Z,928.27
2017-05-21T05:01:39.739Z,928.32
2017-05-21T05:01:52.656Z,928.28
2017-05-21T05:02:06.051Z,928.29
2017-05-21T05:02:20.312Z,928.28
2017-05-21T05:02:34.064Z,928.25
2017-05-21T05:02:46.927Z,928.29
2017-05-21T05:03:01.084Z,928.28
2017-05-21T05:03:14.520Z,928.25
2017-05-21T05:03:27.953Z,928.26
2017-05-21T05:03:41.346Z,928.25
2017-05-21T05:03:54.789Z,928.26
2017-05-21T05:04:07.708Z,928.23
2017-05-21T05:04:19.557Z,928.26
2017-05-21T05:04:32.962Z,928.26
2017-05-21T05:04:46.437Z,928.24
2017-05-21T05:04:59.344Z,928.24
2017-05-21T05:05:12.720Z,928.26
2017-05-21T05:05:25.661Z,928.26
2017-05-21T05:05:38.620Z,928.25
2017-05-21T05:05:51.005Z,928.26
2017-05-21T05:06:03.966Z,928.27
2017-05-21T05:06:16.909Z,928.31
2017-05-21T05:06:29.778Z,928.24
2017-05-21T05:06:42.139Z,928.25
2017-05-21T05:06:55.071Z,928.3
2017-05-21T05:07:08.037Z,928.26
2017-05-21T05:07:19.359Z,928.26
2017-05-21T05:07:32.765Z,928.29
2017-05-21T05:07:46.182Z,928.27
2017-05-21T05:07:59.097Z,928.3
2017-05-21T05:08:12.123Z,928.29
2017-05-21T05:08:25.190Z,928.25
2017-05-21T05:08:38.651Z,928.3
2017-05-21T05:08:52.119Z,928.27
2017-05-21T05:09:05.613Z,928.29
2017-05-21T05:09:19.011Z,928.26
2017-05-21T05:09:31.928Z,928.28
2017-05-21T05:09:44.814Z,928.31
2017-05-21T05:09:57.695Z,928.28
2017-05-21T05:10:11.144Z,928.31
2017-05-21T05:10:24.020Z,928.29
2017-05-21T05:10:36.404Z,928.28
2017-05-21T05:10:49.788Z,928.27
2017-05-21T05:11:02.739Z,928.29
2017-05-21T05:11:15.645Z,928.27
2017-05-21T05:11:29.076Z,928.25
2017-05-21T05:11:41.611Z,928.28
2017-05-21T05:11:54.491Z,928.29
2017-05-21T05:12:06.930Z,928.28
2017-05-21T05:12:20.400Z,928.26
2017-05-21T05:12:32.773Z,928.26
2017-05-21T05:12:44.667Z,928.24
2017-05-21T05:12:58.044Z,928.24
2017-05-21T05:13:11.021Z,928.21
2017-05-21T05:13:24.436Z,928.19
2017-05-21T05:13:37.311Z,928.2
2017-05-21T05:13:50.197Z,928.19
2017-05-21T05:14:03.152Z,928.2
2017-05-21T05:14:16.037Z,928.19
2017-05-21T05:14:28.371Z,928.17
2017-05-21T05:14:41.199Z,928.19
2017-05-21T05:14:54.665Z,928.17
2017-05-21T05:15:08.117Z,928.17
2017-05-21T05:15:20.936Z,928.19
2017-05-21T05:15:33.865Z,928.18
2017-05-21T05:15:47.296Z,928.18
2017-05-21T05:16:00.729Z,928.18
2017-05-21T05:16:14.150Z,928.17
2017-05-21T05:16:27.060Z,928.19
2017-05-21T05:16:39.905Z,928.16
2017-05-21T05:16:53.352Z,928.18
2017-05-21T05:17:06.787Z,928.17
2017-05-21T05:17:20.110Z,928.18
2017-05-21T05:17:32.541Z,928.17
2017-05-21T05:17:45.496Z,928.19
2017-05-21T05:17:58.364Z,928.15
2017-05-21T05:18:11.326Z,928.18
2017-05-21T05:18:23.705Z,928.19
2017-05-21T05:18:36.594Z,928.2
2017-05-21T05:18:50.057Z,928.19
2017-05-21T05:19:02.949Z,928.21
2017-05-21T05:19:15.819Z,928.18
2017-05-21T05:19:29.251Z,928.18
2017-05-21T05:19:42.180Z,928.17
2017-05-21T05:19:55.068Z,928.18
2017-05-21T05:20:07.936Z,928.18
2017-05-21T05:20:20.326Z,928.2
2017-05-21T05:20:33.252Z,928.19
2017-05-21T05:20:45.628Z,928.21
2017-05-21T05:20:59.035Z,928.2
2017-05-21T05:21:12.415Z,928.18
2017-05-21T05:21:25.281Z,928.17
2017-05-21T05:21:37.172Z,928.22
2017-05-21T05:21:50.062Z,928.22
2017-05-21T05:22:03.428Z,928.2
2017-05-21T05:22:16.955Z,928.21
2017-05-21T05:22:30.352Z,928.22
2017-05-21T05:22:43.246Z,928.24
2017-05-21T05:22:56.677Z,928.23
2017-05-21T05:23:10.177Z,928.23
2017-05-21T05:23:23.094Z,928.23
2017-05-21T05:23:35.928Z,928.22
2017-05-21T05:23:48.256Z,928.21
2017-05-21T05:24:01.096Z,928.25
2017-05-21T05:24:13.997Z,928.24
2017-05-21T05:24:27.496Z,928.22
2017-05-21T05:24:39.897Z,928.24
2017-05-21T05:24:52.261Z,928.21
2017-05-21T05:25:05.710Z,928.23
2017-05-21T05:25:18.582Z,928.27
2017-05-21T05:25:30.952Z,928.21
2017-05-21T05:25:43.791Z,928.24
2017-05-21T05:25:57.202Z,928.24
2017-05-21T05:26:10.139Z,928.22
2017-05-21T05:26:23.514Z,928.22
2017-05-21T05:26:37.039Z,928.22
2017-05-21T05:26:50.065Z,928.23
2017-05-21T05:27:03.498Z,928.23
2017-05-21T05:27:15.956Z,928.21
2017-05-21T05:27:29.380Z,928.24
2017-05-21T05:27:42.310Z,928.22
2017-05-21T05:27:55.213Z,928.25
2017-05-21T05:28:08.616Z,928.22
2017-05-21T05:28:21.501Z,928.25
2017-05-21T05:28:33.954Z,928.18
2017-05-21T05:28:46.781Z,928.22
2017-05-21T05:29:00.140Z,928.24
2017-05-21T05:29:13.130Z,928.22
2017-05-21T05:29:26.037Z,928.25
2017-05-21T05:29:38.925Z,928.21
2017-05-21T05:29:51.823Z,928.23
2017-05-21T05:30:04.820Z,928.28
2017-05-21T05:30:17.731Z,928.21
2017-05-21T05:30:30.684Z,928.24
2017-05-21T05:30:43.632Z,928.24
2017-05-21T05:30:56.019Z,928.24
2017-05-21T05:31:09.384Z,928.26
2017-05-21T05:31:22.259Z,928.21
2017-05-21T05:31:34.673Z,928.23
2017-05-21T05:31:47.522Z,928.24
2017-05-21T05:32:00.925Z,928.23
2017-05-21T05:32:14.384Z,928.21
2017-05-21T05:32:27.830Z,928.23
2017-05-21T05:32:40.723Z,928.24
2017-05-21T05:32:54.193Z,928.23
2017-05-21T05:33:07.090Z,928.26
2017-05-21T05:33:20.030Z,928.22
2017-05-21T05:33:32.347Z,928.22
2017-05-21T05:33:45.783Z,928.23
2017-05-21T05:33:58.143Z,928.24
2017-05-21T05:34:11.605Z,928.23
2017-05-21T05:34:24.528Z,928.26
2017-05-21T05:34:37.939Z,928.25
2017-05-21T05:34:51.357Z,928.18
2017-05-21T05:35:04.299Z,928.24
2017-05-21T05:35:17.274Z,928.22
2017-05-21T05:35:30.675Z,928.22
2017-05-21T05:35:43.089Z,928.21
2017-05-21T05:35:55.959Z,928.18
2017-05-21T05:36:09.419Z,928.26
2017-05-21T05:36:21.285Z,928.23
2017-05-21T05:36:34.183Z,928.21
2017-05-21T05:36:47.040Z,928.23
2017-05-21T05:36:59.884Z,928.22
2017-05-21T05:37:12.228Z,928.24
2017-05-21T05:37:24.562Z,928.27
2017-05-21T05:37:37.444Z,928.22
2017-05-21T05:37:50.292Z,928.23
2017-05-21T05:38:03.753Z,928.26
2017-05-21T05:38:17.169Z,928.2
2017-05-21T05:38:30.539Z,928.22
2017-05-21T05:38:43.942Z,928.21
2017-05-21T05:38:56.934Z,928.2
2017-05-21T05:39:09.934Z,928.2
2017-05-21T05:39:22.284Z,928.22
2017-05-21T05:39:35.233Z,928.21
2017-05-21T05:39:48.152Z,928.22
2017-05-21T05:40:00.479Z,928.18
2017-05-21T05:40:13.932Z,928.24
2017-05-21T05:40:26.913Z,928.22
2017-05-21T05:40:39.831Z,928.26
2017-05-21T05:40:52.238Z,928.25
2017-05-21T05:41:05.207Z,928.24
2017-05-21T05:41:17.588Z,928.25
2017-05-21T05:41:29.954Z,928.26
2017-05-21T05:41:43.357Z,928.22
2017-05-21T05:41:56.545Z,928.26
2017-05-21T05:42:09.497Z,928.24
2017-05-21T05:42:21.858Z,928.25
2017-05-21T05:42:35.361Z,928.28
2017-05-21T05:42:48.320Z,928.29
2017-05-21T05:43:01.763Z,928.29
2017-05-21T05:43:14.600Z,928.29
2017-05-21T05:43:27.561Z,928.31
2017-05-21T05:43:39.964Z,928.31
2017-05-21T05:43:52.305Z,928.29
2017-05-21T05:44:05.733Z,928.3
2017-05-21T05:44:18.641Z,928.24
2017-05-21T05:44:30.996Z,928.32
2017-05-21T05:44:44.436Z,928.33
2017-05-21T05:44:57.869Z,928.33
2017-05-21T05:45:11.307Z,928.34
2017-05-21T05:45:24.755Z,928.37
2017-05-21T05:45:37.698Z,928.34
2017-05-21T05:45:51.099Z,928.31
2017-05-21T05:46:03.947Z,928.34
2017-05-21T05:46:17.331Z,928.35
2017-05-21T05:46:30.224Z,928.35
2017-05-21T05:46:43.173Z,928.33
2017-05-21T05:46:56.605Z,928.34
2017-05-21T05:47:10.005Z,928.33
2017-05-21T05:47:23.549Z,928.34
2017-05-21T05:47:35.917Z,928.37
2017-05-21T05:47:49.360Z,928.35
2017-05-21T05:48:02.786Z,928.31
2017-05-21T05:48:15.137Z,928.34
2017-05-21T05:48:27.525Z,928.32
2017-05-21T05:48:39.929Z,928.34
2017-05-21T05:48:53.407Z,928.33
2017-05-21T05:49:06.861Z,928.34
2017-05-21T05:49:19.264Z,928.35
2017-05-21T05:49:31.651Z,928.36
2017-05-21T05:49:44.480Z,928.36
2017-05-21T05:49:57.413Z,928.36
2017-05-21T05:50:09.816Z,928.4
2017-05-21T05:50:22.751Z,928.37
2017-05-21T05:50:35.668Z,928.35
2017-05-21T05:50:49.043Z,928.4
2017-05-21T05:51:02.443Z,928.34
2017-05-21T05:51:15.325Z,928.37
2017-05-21T05:51:28.198Z,928.38
2017-05-21T05:51:40.561Z,928.43
2017-05-21T05:51:54.019Z,928.38
2017-05-21T05:52:06.919Z,928.44
2017-05-21T05:52:18.761Z,928.4
2017-05-21T05:52:32.168Z,928.43
2017-05-21T05:52:44.491Z,928.4
2017-05-21T05:52:57.842Z,928.39
2017-05-21T05:53:11.258Z,928.38
2017-05-21T05:53:24.129Z,928.4
2017-05-21T05:53:35.925Z,928.39
2017-05-21T05:53:48.787Z,928.36
2017-05-21T05:54:02.236Z,928.39
2017-05-21T05:54:15.130Z,928.4
2017-05-21T05:54:28.070Z,928.39
2017-05-21T05:54:40.450Z,928.36
2017-05-21T05:54:53.369Z,928.37
2017-05-21T05:55:06.797Z,928.41
2017-05-21T05:55:20.167Z,928.37
2017-05-21T05:55:33.075Z,928.42
2017-05-21T05:55:46.463Z,928.44
2017-05-21T05:55:59.813Z,928.42
2017-05-21T05:56:13.226Z,928.39
2017-05-21T05:56:25.063Z,928.4
2017-05-21T05:56:36.821Z,928.4
2017-05-21T05:56:50.257Z,928.41
2017-05-21T05:57:03.768Z,928.4
2017-05-21T05:57:16.173Z,928.39
2017-05-21T05:57:28.574Z,928.38
2017-05-21T05:57:41.475Z,928.4
2017-05-21T05:57:54.904Z,928.39
2017-05-21T05:58:08.351Z,928.43
2017-05-21T05:58:20.187Z,928.37
2017-05-21T05:58:32.564Z,928.42
2017-05-21T05:58:45.433Z,928.4
2017-05-21T05:58:58.261Z,928.4
2017-05-21T05:59:11.614Z,928.4
2017-05-21T05:59:24.634Z,928.4
2017-05-21T05:59:36.478Z,928.4
2017-05-21T05:59:49.399Z,928.38
2017-05-21T06:00:02.854Z,928.41
2017-05-21T06:00:15.798Z,928.39
2017-05-21T06:00:28.758Z,928.34
2017-05-21T06:00:41.713Z,928.34
2017-05-21T06:00:54.616Z,928.34
2017-05-21T06:01:07.979Z,928.31
2017-05-21T06:01:20.833Z,928.36
2017-05-21T06:01:33.661Z,928.34
2017-05-21T06:01:46.013Z,928.31
2017-05-21T06:01:59.471Z,928.36
2017-05-21T06:02:12.294Z,928.33
2017-05-21T06:02:24.632Z,928.29
2017-05-21T06:02:35.976Z,928.3
2017-05-21T06:02:48.914Z,928.27
2017-05-21T06:03:02.279Z,928.32
2017-05-21T06:03:15.621Z,928.33
2017-05-21T06:03:28.455Z,928.29
2017-05-21T06:03:40.294Z,928.29
2017-05-21T06:03:53.777Z,928.29
2017-05-21T06:04:07.246Z,928.28
2017-05-21T06:04:19.607Z,928.28
2017-05-21T06:04:32.448Z,928.27
2017-05-21T06:04:45.775Z,928.25
2017-05-21T06:04:59.199Z,928.27
2017-05-21T06:05:12.571Z,928.26
2017-05-21T06:05:25.974Z,928.26
2017-05-21T06:05:38.335Z,928.24
2017-05-21T06:05:51.276Z,928.25
2017-05-21T06:06:04.745Z,928.25
2017-05-21T06:06:17.149Z,928.28
2017-05-21T06:06:30.019Z,928.24
2017-05-21T06:06:42.376Z,928.25
2017-05-21T06:06:55.243Z,928.24
2017-05-21T06:07:08.606Z,928.22
2017-05-21T06:07:21.014Z,928.24
2017-05-21T06:07:34.466Z,928.23
2017-05-21T06:07:47.912Z,928.23
2017-05-21T06:08:01.308Z,928.25
2017-05-21T06:08:13.679Z,928.21
2017-05-21T06:08:26.066Z,928.23
2017-05-21T06:08:38.397Z,928.24
2017-05-21T06:08:51.788Z,928.21
2017-05-21T06:09:05.195Z,928.24
2017-05-21T06:09:17.554Z,928.21
2017-05-21T06:09:31.006Z,928.24
2017-05-21T06:09:43.411Z,928.24
2017-05-21T06:09:56.817Z,928.23
2017-05-21T06:10:09.705Z,928.26
2017-05-21T06:10:22.666Z,928.27
2017-05-21T06:10:36.141Z,928.29
2017-05-21T06:10:49.062Z,928.25
2017-05-21T06:11:02.449Z,928.24
2017-05-21T06:11:14.844Z,928.27
2017-05-21T06:11:27.208Z,928.29
2017-05-21T06:11:39.576Z,928.31
2017-05-21T06:11:52.494Z,928.31
2017-05-21T06:12:06.237Z,928.31
2017-05-21T06:12:19.210Z,928.29
2017-05-21T06:12:32.070Z,928.3
2017-05-21T06:12:45.418Z,928.28
2017-05-21T06:12:58.904Z,928.29
2017-05-21T06:13:12.270Z,928.31
2017-05-21T06:13:25.114Z,928.28
2017-05-21T06:13:38.007Z,928.29
2017-05-21T06:13:50.843Z,928.32
2017-05-21T06:14:04.361Z,928.28
2017-05-21T06:14:17.279Z,928.33
2017-05-21T06:14:30.724Z,928.3
2017-05-21T06:14:43.139Z,928.3
2017-05-21T06:14:56.569Z,928.32
2017-05-21T06:15:09.433Z,928.27
2017-05-21T06:15:22.326Z,928.26
2017-05-21T06:15:34.725Z,928.28
2017-05-21T06:15:47.597Z,928.3
2017-05-21T06:16:00.925Z,928.28
2017-05-21T06:16:14.380Z,928.3
2017-05-21T06:16:27.209Z,928.31
2017-05-21T06:16:39.071Z,928.29
2017-05-21T06:16:52.512Z,928.32
2017-05-21T06:17:05.984Z,928.29
2017-05-21T06:17:18.933Z,928.3
2017-05-21T06:17:31.374Z,928.3
2017-05-21T06:17:44.825Z,928.32
2017-05-21T06:17:58.254Z,928.33
2017-05-21T06:18:11.642Z,928.33
2017-05-21T06:18:24.537Z,928.3
2017-05-21T06:18:36.869Z,928.27
2017-05-21T06:18:49.230Z,928.3
2017-05-21T06:19:02.643Z,928.31
2017-05-21T06:19:15.522Z,928.3
2017-05-21T06:19:28.879Z,928.31
2017-05-21T06:19:41.203Z,928.29
2017-05-21T06:19:54.032Z,928.33
2017-05-21T06:20:06.904Z,928.29
2017-05-21T06:20:20.304Z,928.31
2017-05-21T06:20:32.173Z,928.28
2017-05-21T06:20:45.080Z,928.29
2017-05-21T06:20:58.430Z,928.27
2017-05-21T06:21:12.142Z,928.31
2017-05-21T06:21:24.967Z,928.31
2017-05-21T06:21:37.915Z,928.26
2017-05-21T06:21:50.849Z,928.29
2017-05-21T06:22:04.239Z,928.31
2017-05-21T06:22:17.119Z,928.26
2017-05-21T06:22:29.979Z,928.28
2017-05-21T06:22:43.328Z,928.27
2017-05-21T06:22:56.770Z,928.27
2017-05-21T06:23:10.156Z,928.25
2017-05-21T06:23:23.068Z,928.3
2017-05-21T06:23:35.923Z,928.25
2017-05-21T06:23:48.819Z,928.29
2017-05-21T06:24:02.307Z,928.23
2017-05-21T06:24:15.232Z,928.25
2017-05-21T06:24:27.580Z,928.26
2017-05-21T06:24:39.944Z,928.27
2017-05-21T06:24:53.440Z,928.29
2017-05-21T06:25:06.834Z,928.28
2017-05-21T06:25:19.203Z,928.28
2017-05-21T06:25:32.078Z,928.27
2017-05-21T06:25:45.513Z,928.29
2017-05-21T06:25:58.459Z,928.26
2017-05-21T06:26:11.876Z,928.26
2017-05-21T06:26:24.785Z,928.23
2017-05-21T06:26:38.139Z,928.24
2017-05-21T06:26:50.431Z,928.25
2017-05-21T06:27:03.319Z,928.24
2017-05-21T06:27:16.785Z,928.24
2017-05-21T06:27:29.141Z,928.23
2017-05-21T06:27:42.043Z,928.22